Time;durP1;ratioP1;P1;durP2;ratioP2;P2;SDS_P1;SDS_P2;PMS_P1;PMS_P2;Temp;Humidity;BMP_temperature;BMP_pressure;BME280_temperature;BME280_humidity;BME280_pressure;Samples;Min_cycle;Max_cycle;Signal;HPM_P1;HPM_P2
2023/10/23 00:01:15;;;;;;;11.23;6.10;;;6.60;99.90;;;;;;5113167;28;20230;-76
2023/10/23 00:03:43;;;;;;;12.67;6.47;;;6.60;99.90;;;;;;5113292;28;20248;-75
2023/10/23 00:06:10;;;;;;;14.33;6.93;;;6.50;99.90;;;;;;5113076;28;20254;-77
2023/10/23 00:08:36;;;;;;;12.73;6.47;;;6.50;99.90;;;;;;5113072;28;20252;-76
2023/10/23 00:11:03;;;;;;;16.17;7.10;;;6.40;99.90;;;;;;5112925;28;20540;-77
2023/10/23 00:13:30;;;;;;;10.90;6.90;;;6.50;99.90;;;;;;5113168;28;20223;-77
2023/10/23 00:15:57;;;;;;;12.47;6.70;;;6.50;99.90;;;;;;5113129;28;20202;-77
2023/10/23 00:18:25;;;;;;;12.47;6.83;;;6.40;99.90;;;;;;5113227;28;20192;-76
2023/10/23 00:20:52;;;;;;;13.60;7.50;;;6.50;99.90;;;;;;5116795;28;20228;-76
2023/10/23 00:23:19;;;;;;;12.90;7.53;;;6.40;99.90;;;;;;5116867;28;20199;-77
2023/10/23 00:25:46;;;;;;;11.17;7.03;;;6.20;99.90;;;;;;5116806;28;20261;-77
2023/10/23 00:28:12;;;;;;;15.97;7.33;;;6.20;99.90;;;;;;5117076;28;20203;-77
2023/10/23 00:30:39;;;;;;;12.17;6.27;;;6.10;99.90;;;;;;5116900;28;20202;-78
2023/10/23 00:33:06;;;;;;;11.27;5.90;;;6.20;99.90;;;;;;5116642;28;20200;-77
2023/10/23 00:35:32;;;;;;;15.17;7.27;;;6.10;99.90;;;;;;5116540;28;20256;-77
2023/10/23 00:38:00;;;;;;;11.30;5.70;;;6.10;99.90;;;;;;5116600;28;20199;-77
2023/10/23 00:40:27;;;;;;;10.73;5.90;;;6.00;99.90;;;;;;5116414;28;20236;-78
2023/10/23 00:42:54;;;;;;;10.40;6.27;;;6.00;99.90;;;;;;5116534;28;20233;-78
2023/10/23 00:45:20;;;;;;;9.07;5.13;;;5.90;99.90;;;;;;5116588;28;20200;-77
2023/10/23 00:47:47;;;;;;;9.53;5.43;;;5.90;99.90;;;;;;5116437;28;20205;-76
2023/10/23 00:50:14;;;;;;;12.57;5.73;;;5.90;99.90;;;;;;5116288;28;20198;-76
2023/10/23 00:52:41;;;;;;;9.37;5.73;;;5.90;99.90;;;;;;5116552;28;20199;-78
2023/10/23 00:55:11;;;;;;;10.43;6.00;;;5.90;99.90;;;;;;5116311;28;20202;-78
2023/10/23 00:57:38;;;;;;;11.03;6.33;;;6.00;99.90;;;;;;5116411;28;20274;-78
2023/10/23 01:00:08;;;;;;;13.97;6.47;;;6.00;99.90;;;;;;5116129;28;20223;-77
2023/10/23 01:02:35;;;;;;;9.10;5.60;;;6.00;99.90;;;;;;5116174;28;20196;-77
2023/10/23 01:05:02;;;;;;;15.37;6.10;;;6.00;99.90;;;;;;5116102;28;20200;-77
2023/10/23 01:07:29;;;;;;;10.80;5.60;;;5.80;99.90;;;;;;5116300;28;20658;-77
2023/10/23 01:09:56;;;;;;;8.47;4.37;;;5.70;99.90;;;;;;5115885;28;20203;-77
2023/10/23 01:12:24;;;;;;;9.00;5.17;;;5.70;99.90;;;;;;5116035;28;20196;-77
2023/10/23 01:14:50;;;;;;;11.83;5.37;;;5.70;99.90;;;;;;5115917;28;20195;-77
2023/10/23 01:17:17;;;;;;;9.20;5.10;;;5.70;99.90;;;;;;5115902;28;20203;-77
2023/10/23 01:19:44;;;;;;;10.00;5.13;;;5.60;99.90;;;;;;5115660;27;20686;-77
2023/10/23 01:22:10;;;;;;;11.70;5.33;;;5.60;99.90;;;;;;5115657;28;20202;-77
2023/10/23 01:24:41;;;;;;;10.23;5.07;;;5.50;99.90;;;;;;5116066;27;20196;-76
2023/10/23 01:27:10;;;;;;;10.70;4.80;;;5.50;99.90;;;;;;5115937;28;20195;-76
2023/10/23 01:29:36;;;;;;;12.00;5.50;;;5.50;99.90;;;;;;5115417;28;20585;-76
2023/10/23 01:32:03;;;;;;;13.40;5.27;;;5.40;99.90;;;;;;5115629;28;20603;-76
2023/10/23 01:34:30;;;;;;;10.97;6.13;;;5.50;99.90;;;;;;5115412;28;20323;-76
2023/10/23 01:36:57;;;;;;;9.97;5.73;;;5.50;99.90;;;;;;5115867;28;20199;-76
2023/10/23 01:39:23;;;;;;;10.93;5.77;;;5.40;99.90;;;;;;5115618;28;20195;-76
2023/10/23 01:41:50;;;;;;;8.53;5.20;;;5.40;99.90;;;;;;5115399;28;20631;-76
2023/10/23 01:44:18;;;;;;;8.23;5.17;;;5.30;99.90;;;;;;5115506;28;20453;-76
2023/10/23 01:46:45;;;;;;;9.63;5.40;;;5.20;99.90;;;;;;5115420;28;20191;-76
2023/10/23 01:49:11;;;;;;;8.33;5.03;;;5.20;99.90;;;;;;5115351;28;20200;-76
2023/10/23 01:51:38;;;;;;;9.57;4.53;;;5.10;99.90;;;;;;5115346;28;20207;-76
2023/10/23 01:54:05;;;;;;;5.63;4.37;;;5.10;99.90;;;;;;5115228;28;20662;-77
2023/10/23 01:56:31;;;;;;;9.20;5.13;;;5.10;99.90;;;;;;5115043;28;20198;-76
2023/10/23 01:58:58;;;;;;;12.83;4.83;;;5.00;99.90;;;;;;5115053;28;20206;-77
2023/10/23 02:01:26;;;;;;;9.93;4.97;;;4.90;99.90;;;;;;5114992;28;20223;-76
2023/10/23 02:03:53;;;;;;;7.23;4.97;;;5.00;99.90;;;;;;5118474;28;20203;-76
2023/10/23 02:06:19;;;;;;;8.43;4.97;;;5.00;99.90;;;;;;5120200;28;20272;-76
2023/10/23 02:08:46;;;;;;;11.37;4.43;;;5.00;99.90;;;;;;5119839;28;20222;-76
2023/10/23 02:11:13;;;;;;;9.60;5.57;;;5.00;99.90;;;;;;5115512;28;20253;-77
2023/10/23 02:13:39;;;;;;;9.77;5.47;;;5.10;99.90;;;;;;5114901;27;20199;-77
2023/10/23 02:16:06;;;;;;;10.27;5.37;;;5.10;99.90;;;;;;5114820;28;20199;-77
2023/10/23 02:18:34;;;;;;;11.07;5.37;;;5.00;99.90;;;;;;5115071;28;20283;-77
2023/10/23 02:21:01;;;;;;;10.37;5.33;;;4.90;99.90;;;;;;5122732;27;20250;-76
2023/10/23 02:23:28;;;;;;;10.37;4.77;;;4.80;99.90;;;;;;5114646;28;20256;-76
2023/10/23 02:25:54;;;;;;;9.10;4.97;;;4.80;99.90;;;;;;5114710;27;20245;-76
2023/10/23 02:28:21;;;;;;;7.83;5.40;;;4.70;99.90;;;;;;5115734;28;20224;-76
2023/10/23 02:30:48;;;;;;;8.63;5.70;;;4.70;99.90;;;;;;5114638;28;20203;-76
2023/10/23 02:33:14;;;;;;;11.27;5.90;;;4.70;99.90;;;;;;5114603;28;20203;-77
2023/10/23 02:35:43;;;;;;;9.80;6.00;;;4.70;99.90;;;;;;5114741;28;20206;-74
2023/10/23 02:38:10;;;;;;;11.13;6.30;;;4.70;99.90;;;;;;5114496;28;20210;-76
2023/10/23 02:40:37;;;;;;;8.33;5.67;;;4.60;99.90;;;;;;5114144;28;20230;-76
2023/10/23 02:43:04;;;;;;;12.03;6.37;;;4.60;99.90;;;;;;5113338;28;20198;-76
2023/10/23 02:45:32;;;;;;;12.50;6.87;;;4.50;99.90;;;;;;5114287;28;20237;-76
2023/10/23 02:47:59;;;;;;;13.70;5.87;;;4.50;99.90;;;;;;5114162;28;20209;-77
2023/10/23 02:50:26;;;;;;;12.70;5.63;;;4.50;99.90;;;;;;5114157;28;20202;-76
2023/10/23 02:52:54;;;;;;;12.50;6.03;;;4.60;99.90;;;;;;5114063;28;20285;-76
2023/10/23 02:55:20;;;;;;;11.60;5.20;;;4.50;99.90;;;;;;5113894;28;20251;-79
2023/10/23 02:57:47;;;;;;;10.63;5.80;;;4.50;99.90;;;;;;5113901;28;20207;-76
2023/10/23 03:00:14;;;;;;;11.00;5.30;;;4.40;99.90;;;;;;5114085;28;20196;-75
2023/10/23 03:02:43;;;;;;;8.63;5.53;;;4.40;99.90;;;;;;5113803;28;20194;-76
2023/10/23 03:05:10;;;;;;;11.53;5.27;;;4.50;99.90;;;;;;5113867;28;20584;-76
2023/10/23 03:07:36;;;;;;;9.47;5.40;;;4.50;99.90;;;;;;5114041;28;20225;-76
2023/10/23 03:10:05;;;;;;;10.03;5.77;;;4.40;99.90;;;;;;5113779;28;20267;-76
2023/10/23 03:12:32;;;;;;;10.90;5.40;;;4.40;99.90;;;;;;5113658;28;20621;-76
2023/10/23 03:14:58;;;;;;;8.07;5.63;;;4.30;99.90;;;;;;5113873;28;20232;-76
2023/10/23 03:17:25;;;;;;;9.30;5.60;;;4.20;99.90;;;;;;5113722;28;20566;-76
2023/10/23 03:19:52;;;;;;;6.63;5.33;;;4.10;99.90;;;;;;5113648;28;20315;-76
2023/10/23 03:22:19;;;;;;;9.37;5.90;;;4.00;99.90;;;;;;5113500;28;20226;-76
2023/10/23 03:24:46;;;;;;;7.57;5.50;;;3.90;99.90;;;;;;5113469;28;20213;-77
2023/10/23 03:27:14;;;;;;;8.90;5.70;;;4.00;99.90;;;;;;5113666;28;20242;-77
2023/10/23 03:29:43;;;;;;;13.97;5.87;;;3.90;99.90;;;;;;5113558;28;20210;-76
2023/10/23 03:32:10;;;;;;;9.60;6.00;;;3.90;99.90;;;;;;5113656;28;20382;-77
2023/10/23 03:34:37;;;;;;;12.40;5.37;;;3.90;99.90;;;;;;5113246;28;20230;-76
2023/10/23 03:37:04;;;;;;;10.17;6.00;;;4.00;99.90;;;;;;5113467;28;20593;-77
2023/10/23 03:39:31;;;;;;;11.03;5.83;;;4.00;99.90;;;;;;5113454;28;20200;-78
2023/10/23 03:41:58;;;;;;;12.23;6.13;;;4.00;99.90;;;;;;5113608;28;20335;-78
2023/10/23 03:44:26;;;;;;;9.37;6.27;;;4.00;99.90;;;;;;5113389;28;20198;-78
2023/10/23 03:46:52;;;;;;;12.80;7.40;;;4.00;99.90;;;;;;5113485;28;20258;-78
2023/10/23 03:49:19;;;;;;;19.47;10.10;;;4.00;99.90;;;;;;5113412;28;20206;-78
2023/10/23 03:51:46;;;;;;;22.43;10.70;;;3.90;99.90;;;;;;5113166;28;20207;-76
2023/10/23 03:54:12;;;;;;;21.20;10.43;;;3.90;99.90;;;;;;5115858;28;20199;-79
2023/10/23 03:56:39;;;;;;;16.33;8.90;;;4.00;99.90;;;;;;5117537;28;20196;-78
2023/10/23 03:59:06;;;;;;;13.47;8.87;;;4.10;99.90;;;;;;5117304;28;20197;-77
2023/10/23 04:01:34;;;;;;;16.03;9.07;;;4.00;99.90;;;;;;5117203;28;20684;-78
2023/10/23 04:04:00;;;;;;;15.33;8.27;;;3.90;99.90;;;;;;5117476;28;20203;-79
2023/10/23 04:06:27;;;;;;;12.10;8.53;;;3.90;99.90;;;;;;5117298;28;20210;-79
2023/10/23 04:08:54;;;;;;;12.43;8.00;;;4.00;99.90;;;;;;5117214;28;20661;-78
2023/10/23 04:11:20;;;;;;;15.13;7.70;;;3.90;99.90;;;;;;5117037;28;20663;-78
2023/10/23 04:13:47;;;;;;;13.43;7.57;;;3.90;99.90;;;;;;5117419;27;20208;-78
2023/10/23 04:16:15;;;;;;;11.93;7.80;;;3.90;99.90;;;;;;5117030;28;20199;-79
2023/10/23 04:18:43;;;;;;;13.57;8.10;;;3.80;99.90;;;;;;5117042;28;20194;-78
2023/10/23 04:21:12;;;;;;;12.80;7.67;;;3.90;99.90;;;;;;5116659;28;20213;-78
2023/10/23 04:23:40;;;;;;;9.93;7.57;;;3.80;99.90;;;;;;5117057;28;20201;-78
2023/10/23 04:26:07;;;;;;;14.03;8.07;;;3.70;99.90;;;;;;5117137;28;20242;-78
2023/10/23 04:28:35;;;;;;;11.20;7.87;;;3.70;99.90;;;;;;5116936;28;20201;-78
2023/10/23 04:31:03;;;;;;;10.83;7.73;;;3.60;99.90;;;;;;5116702;28;20191;-78
2023/10/23 04:33:30;;;;;;;11.23;8.43;;;3.70;99.90;;;;;;5116378;27;20224;-77
2023/10/23 04:35:59;;;;;;;12.83;8.67;;;3.60;99.90;;;;;;5116531;28;20204;-77
2023/10/23 04:38:26;;;;;;;12.50;8.17;;;3.60;99.90;;;;;;5116785;28;20193;-77
2023/10/23 04:40:53;;;;;;;15.87;8.87;;;3.50;99.90;;;;;;5116650;28;20220;-76
2023/10/23 04:43:21;;;;;;;17.37;10.73;;;3.50;99.90;;;;;;5116506;28;20193;-77
2023/10/23 04:45:48;;;;;;;12.57;9.90;;;3.60;99.90;;;;;;5116446;28;20231;-77
2023/10/23 04:48:15;;;;;;;18.93;11.67;;;3.60;99.90;;;;;;5116373;28;20231;-78
2023/10/23 04:50:42;;;;;;;20.63;11.97;;;3.70;99.90;;;;;;5116420;28;20209;-78
2023/10/23 04:53:10;;;;;;;12.87;9.97;;;3.70;99.90;;;;;;5116340;28;20197;-78
2023/10/23 04:55:39;;;;;;;12.43;8.73;;;3.70;99.90;;;;;;5116250;28;20193;-77
2023/10/23 04:58:07;;;;;;;9.43;7.33;;;3.60;99.90;;;;;;5116083;28;20311;-77
2023/10/23 05:00:35;;;;;;;7.77;6.60;;;3.50;99.90;;;;;;5115952;28;20282;-77
2023/10/23 05:03:03;;;;;;;9.60;6.50;;;3.40;99.90;;;;;;5116020;28;20224;-77
2023/10/23 05:05:30;;;;;;;15.90;7.23;;;3.40;99.90;;;;;;5114982;28;20197;-77
2023/10/23 05:07:57;;;;;;;8.73;6.80;;;3.30;99.90;;;;;;5116644;28;20200;-76
2023/10/23 05:10:25;;;;;;;9.33;7.20;;;3.30;99.90;;;;;;5118433;28;20284;-77
2023/10/23 05:12:53;;;;;;;11.10;7.73;;;3.30;99.90;;;;;;5117446;28;20200;-77
2023/10/23 05:15:20;;;;;;;12.03;8.40;;;3.30;99.90;;;;;;5116888;28;20283;-77
2023/10/23 05:17:46;;;;;;;10.87;7.87;;;3.40;99.90;;;;;;5116215;27;20201;-77
2023/10/23 05:20:13;;;;;;;12.70;8.20;;;3.40;99.90;;;;;;5115928;28;20195;-77
2023/10/23 05:22:40;;;;;;;9.30;7.63;;;3.30;99.90;;;;;;5115554;28;20333;-77
2023/10/23 05:25:08;;;;;;;12.03;7.97;;;3.20;99.90;;;;;;5115685;28;20202;-77
2023/10/23 05:27:36;;;;;;;13.37;8.57;;;3.30;99.90;;;;;;5115374;28;20654;-76
2023/10/23 05:30:03;;;;;;;11.67;8.50;;;3.40;99.90;;;;;;5115367;27;20202;-76
2023/10/23 05:32:30;;;;;;;13.20;9.07;;;3.30;99.90;;;;;;5115654;28;20282;-76
2023/10/23 05:34:57;;;;;;;12.27;9.40;;;3.30;99.90;;;;;;5115343;28;20226;-77
2023/10/23 05:37:23;;;;;;;11.93;8.57;;;3.20;99.90;;;;;;5115137;28;20201;-77
2023/10/23 05:39:50;;;;;;;10.03;8.43;;;3.10;99.90;;;;;;5115231;28;20588;-78
2023/10/23 05:42:17;;;;;;;12.10;7.93;;;3.10;99.90;;;;;;5115427;28;20221;-78
2023/10/23 05:44:45;;;;;;;10.30;8.17;;;3.00;99.90;;;;;;5115086;28;20197;-78
2023/10/23 05:47:11;;;;;;;11.07;7.87;;;3.00;99.90;;;;;;5115012;28;20209;-78
2023/10/23 05:49:38;;;;;;;10.07;7.53;;;3.00;99.90;;;;;;5114839;28;20715;-78
2023/10/23 05:52:05;;;;;;;10.17;7.77;;;3.20;99.90;;;;;;5117304;28;20196;-78
2023/10/23 05:54:31;;;;;;;9.47;7.00;;;3.30;99.90;;;;;;5116881;28;20211;-77
2023/10/23 05:56:58;;;;;;;12.07;7.67;;;3.30;99.90;;;;;;5115642;28;20196;-78
2023/10/23 05:59:25;;;;;;;9.00;7.00;;;3.30;99.90;;;;;;5115405;27;20196;-78
2023/10/23 06:01:53;;;;;;;11.63;8.33;;;3.30;99.90;;;;;;5114776;28;20224;-77
2023/10/23 06:04:19;;;;;;;9.63;7.73;;;3.30;99.90;;;;;;5114846;28;20199;-78
2023/10/23 06:06:46;;;;;;;11.73;8.10;;;3.20;99.90;;;;;;5114830;28;20257;-77
2023/10/23 06:09:13;;;;;;;12.63;7.87;;;3.20;99.90;;;;;;5114711;28;20241;-78
2023/10/23 06:11:40;;;;;;;10.80;8.20;;;3.20;99.90;;;;;;5114763;28;20203;-78
2023/10/23 06:14:06;;;;;;;14.97;8.33;;;3.20;99.90;;;;;;5114765;28;20552;-77
2023/10/23 06:16:33;;;;;;;12.97;8.47;;;3.30;99.90;;;;;;5113639;28;20199;-77
2023/10/23 06:19:01;;;;;;;14.53;8.30;;;3.50;99.90;;;;;;5114785;28;20670;-77
2023/10/23 06:21:28;;;;;;;19.37;9.13;;;3.50;99.90;;;;;;5114822;28;20223;-78
2023/10/23 06:23:55;;;;;;;12.67;8.83;;;3.50;99.90;;;;;;5114745;28;20254;-77
2023/10/23 06:26:21;;;;;;;12.33;9.63;;;3.70;99.90;;;;;;5114410;28;20202;-78
2023/10/23 06:28:48;;;;;;;13.03;9.87;;;3.70;99.90;;;;;;5114389;28;20647;-77
2023/10/23 06:31:15;;;;;;;14.33;10.30;;;3.80;99.90;;;;;;5114411;28;20635;-76
2023/10/23 06:33:42;;;;;;;12.40;9.83;;;3.90;99.90;;;;;;5114117;28;20234;-77
2023/10/23 06:36:10;;;;;;;13.03;9.87;;;4.00;99.90;;;;;;5114310;28;20223;-77
2023/10/23 06:38:37;;;;;;;12.23;9.53;;;4.00;99.90;;;;;;5114077;28;20199;-77
2023/10/23 06:41:04;;;;;;;15.37;10.23;;;4.10;99.90;;;;;;5114325;28;20651;-78
2023/10/23 06:43:31;;;;;;;12.40;10.23;;;4.10;99.90;;;;;;5114100;28;20202;-77
2023/10/23 06:45:58;;;;;;;14.50;10.60;;;4.10;99.90;;;;;;5114293;28;20197;-78
2023/10/23 06:48:24;;;;;;;18.77;10.10;;;4.10;99.90;;;;;;5114132;28;20202;-77
2023/10/23 06:50:51;;;;;;;13.23;10.63;;;4.20;99.90;;;;;;5114240;28;20200;-76
2023/10/23 06:53:19;;;;;;;16.77;10.83;;;4.30;99.90;;;;;;5114104;28;20211;-76
2023/10/23 06:55:49;;;;;;;17.10;10.73;;;4.40;99.90;;;;;;5114060;28;20208;-77
2023/10/23 06:58:16;;;;;;;19.20;13.07;;;4.40;99.90;;;;;;5114469;28;20189;-77
2023/10/23 07:00:43;;;;;;;12.90;10.50;;;4.40;99.90;;;;;;5114470;28;20206;-84
2023/10/23 07:03:10;;;;;;;17.07;10.30;;;4.60;99.90;;;;;;5113869;28;20236;-77
2023/10/23 07:05:37;;;;;;;13.33;9.97;;;4.70;99.90;;;;;;5114275;28;20649;-75
2023/10/23 07:08:05;;;;;;;15.03;10.90;;;4.70;99.90;;;;;;5118141;27;20199;-76
2023/10/23 07:10:33;;;;;;;18.00;11.17;;;4.90;99.90;;;;;;5116830;28;20240;-76
2023/10/23 07:13:00;;;;;;;16.73;12.07;;;5.00;99.90;;;;;;5118849;28;20592;-76
2023/10/23 07:15:27;;;;;;;16.83;11.37;;;5.10;99.90;;;;;;5117272;28;20202;-76
2023/10/23 07:17:54;;;;;;;14.57;11.03;;;5.20;99.90;;;;;;5113952;28;20198;-77
2023/10/23 07:20:20;;;;;;;18.37;12.03;;;5.40;99.90;;;;;;5113531;28;20260;-79
2023/10/23 07:22:47;;;;;;;21.13;11.67;;;5.50;99.90;;;;;;5113873;27;20276;-79
2023/10/23 07:25:14;;;;;;;22.40;11.10;;;5.60;99.90;;;;;;5113860;28;20200;-80
2023/10/23 07:27:43;;;;;;;18.80;11.10;;;5.70;99.90;;;;;;5113625;28;20199;-84
2023/10/23 07:30:11;;;;;;;19.30;12.07;;;5.80;99.90;;;;;;5113629;28;20196;-79
2023/10/23 07:32:37;;;;;;;23.63;13.20;;;5.90;99.90;;;;;;5113295;28;20195;-81
2023/10/23 07:35:05;;;;;;;24.20;12.03;;;6.10;99.90;;;;;;5113256;28;20224;-80
2023/10/23 07:37:33;;;;;;;16.93;13.23;;;6.30;99.90;;;;;;5113600;28;20222;-80
2023/10/23 07:40:04;;;;;;;18.00;13.77;;;6.40;99.90;;;;;;5113723;28;20229;-77
2023/10/23 07:42:31;;;;;;;26.33;14.37;;;6.60;99.90;;;;;;5113213;28;20215;-81
2023/10/23 07:44:59;;;;;;;26.47;15.80;;;6.80;99.90;;;;;;5113599;28;20203;-80
2023/10/23 07:47:27;;;;;;;23.77;15.30;;;6.90;99.90;;;;;;5113238;28;20287;-80
2023/10/23 07:49:54;;;;;;;24.77;15.43;;;7.00;99.90;;;;;;5113546;28;20241;-80
2023/10/23 07:52:20;;;;;;;21.60;14.83;;;7.20;99.90;;;;;;5113258;28;20192;-79
2023/10/23 07:54:47;;;;;;;22.13;14.43;;;7.40;99.90;;;;;;5113231;28;20202;-80
2023/10/23 07:57:14;;;;;;;20.47;14.60;;;7.50;99.90;;;;;;5113207;28;20203;-82
2023/10/23 07:59:40;;;;;;;20.83;14.57;;;7.70;99.90;;;;;;5113193;28;20196;-80
2023/10/23 08:02:08;;;;;;;21.00;14.90;;;7.90;99.90;;;;;;5113562;28;20219;-80
2023/10/23 08:04:35;;;;;;;17.57;13.13;;;8.10;99.90;;;;;;5124559;28;20247;-80
2023/10/23 08:07:02;;;;;;;16.03;13.23;;;8.30;99.90;;;;;;5126438;28;20248;-80
2023/10/23 08:09:29;;;;;;;16.60;12.40;;;8.60;99.90;;;;;;5125185;28;20195;-80
2023/10/23 08:11:55;;;;;;;16.33;11.70;;;8.90;99.90;;;;;;5118964;28;20199;-85
2023/10/23 08:14:22;;;;;;;14.93;11.50;;;9.00;99.90;;;;;;5113503;28;20207;-78
2023/10/23 08:16:51;;;;;;;14.60;10.37;;;9.30;99.90;;;;;;5112007;28;20199;-74
2023/10/23 08:19:19;;;;;;;11.47;8.97;;;9.60;99.90;;;;;;5125582;28;20211;-75
2023/10/23 08:21:46;;;;;;;11.47;8.37;;;9.70;99.90;;;;;;5112927;28;20203;-74
2023/10/23 08:24:13;;;;;;;10.57;7.70;;;9.80;99.90;;;;;;5133075;28;20607;-75
2023/10/23 08:26:40;;;;;;;9.03;6.83;;;10.00;99.90;;;;;;5132975;28;20224;-75
2023/10/23 08:29:07;;;;;;;9.43;6.00;;;10.10;99.90;;;;;;5112485;28;20759;-75
2023/10/23 08:31:33;;;;;;;10.23;6.13;;;10.30;99.90;;;;;;5113046;28;20215;-75
2023/10/23 08:34:00;;;;;;;6.73;5.90;;;10.50;99.90;;;;;;5132079;27;20227;-75
2023/10/23 08:36:28;;;;;;;6.33;5.23;;;10.80;99.90;;;;;;5133214;27;20191;-75
2023/10/23 08:38:55;;;;;;;6.17;5.13;;;11.20;99.90;;;;;;5132685;27;20914;-76
2023/10/23 08:41:22;;;;;;;6.60;4.80;;;11.40;99.90;;;;;;5135762;27;20191;-75
2023/10/23 08:43:49;;;;;;;8.23;4.63;;;11.80;99.90;;;;;;5136416;27;20741;-75
2023/10/23 08:46:15;;;;;;;6.17;4.60;;;12.10;99.90;;;;;;5136630;27;20614;-74
2023/10/23 08:48:42;;;;;;;9.97;5.27;;;12.50;99.90;;;;;;5136520;27;20191;-73
2023/10/23 08:51:09;;;;;;;7.57;4.67;;;13.00;99.90;;;;;;5136889;27;20206;-74
2023/10/23 08:53:49;;;;;;;6.43;4.63;;;13.30;99.90;;;;;;5136651;27;20281;-74
2023/10/23 08:56:17;;;;;;;5.57;4.30;;;13.60;99.90;;;;;;5123558;27;20270;-74
2023/10/23 08:58:50;;;;;;;5.27;4.30;;;13.70;99.90;;;;;;5131930;27;20198;-73
2023/10/23 09:01:18;;;;;;;4.77;4.27;;;13.80;99.90;;;;;;5136446;27;20240;-72
2023/10/23 09:03:46;;;;;;;4.37;3.97;;;13.70;99.90;;;;;;5135664;27;20595;-74
2023/10/23 09:06:17;;;;;;;4.40;3.93;;;13.80;99.90;;;;;;5136212;27;20195;-73
2023/10/23 09:08:46;;;;;;;10.90;4.40;;;13.80;99.90;;;;;;5136044;27;20281;-73
2023/10/23 09:11:13;;;;;;;5.17;4.17;;;13.50;99.90;;;;;;5136541;27;20205;-73
2023/10/23 09:13:42;;;;;;;6.22;4.53;;;13.40;99.90;;;;;;5136196;27;20654;-73
2023/10/23 09:16:10;;;;;;;5.23;4.30;;;13.50;99.90;;;;;;5136330;27;20218;-74
2023/10/23 09:18:46;;;;;;;4.33;3.93;;;13.50;99.90;;;;;;5136175;27;20202;-73
2023/10/23 09:21:12;;;;;;;7.27;4.50;;;13.60;99.90;;;;;;5136246;27;20243;-73
2023/10/23 09:23:53;;;;;;;5.83;4.57;;;13.70;99.90;;;;;;5136196;27;20218;-73
2023/10/23 09:26:20;;;;;;;6.47;4.83;;;13.70;99.90;;;;;;5138453;27;20195;-74
2023/10/23 09:28:49;;;;;;;5.23;4.63;;;14.00;99.90;;;;;;5136288;27;20235;-73
2023/10/23 09:31:16;;;;;;;6.73;4.97;;;14.00;99.90;;;;;;5135844;27;20652;-73
2023/10/23 09:33:44;;;;;;;5.57;4.28;;;14.30;99.90;;;;;;5135634;27;20288;-72
2023/10/23 09:36:11;;;;;;;6.60;3.80;;;14.60;99.90;;;;;;5136139;27;20191;-73
2023/10/23 09:38:39;;;;;;;5.05;3.50;;;15.30;99.90;;;;;;5136127;27;20202;-73
2023/10/23 09:41:09;;;;;;;5.80;4.32;;;15.50;99.90;;;;;;5135840;27;20672;-73
2023/10/23 09:43:43;;;;;;;4.65;3.80;;;15.60;99.90;;;;;;5135804;27;20250;-73
2023/10/23 09:46:11;;;;;;;5.25;4.22;;;15.70;99.90;;;;;;5135812;27;20199;-74
2023/10/23 09:48:40;;;;;;;6.25;3.70;;;15.80;99.90;;;;;;5136037;27;20327;-74
2023/10/23 09:51:12;;;;;;;5.43;4.05;;;15.90;99.90;;;;;;5135543;27;20256;-73
2023/10/23 09:53:40;;;;;;;5.78;3.85;;;16.00;99.90;;;;;;5135300;27;20588;-74
2023/10/23 09:56:09;;;;;;;8.23;3.88;;;15.90;99.90;;;;;;5135225;27;20228;-74
2023/10/23 09:58:39;;;;;;;6.15;4.32;;;16.00;99.90;;;;;;5135536;27;20195;-73
2023/10/23 10:01:09;;;;;;;7.65;4.50;;;15.90;99.90;;;;;;5135310;27;20592;-73
2023/10/23 10:03:39;;;;;;;5.40;3.97;;;15.80;99.90;;;;;;5135387;27;20234;-73
2023/10/23 10:06:11;;;;;;;7.00;3.70;;;15.40;99.90;;;;;;5135453;27;20599;-73
2023/10/23 10:08:40;;;;;;;5.25;4.28;;;15.40;99.90;;;;;;5135448;27;20611;-73
2023/10/23 10:11:09;;;;;;;4.35;3.95;;;15.30;99.90;;;;;;5135669;27;20191;-72
2023/10/23 10:13:37;;;;;;;5.65;3.85;;;15.10;99.90;;;;;;5135361;27;20195;-73
2023/10/23 10:16:05;;;;;;;5.72;4.50;;;15.00;99.90;;;;;;5135525;27;20543;-73
2023/10/23 10:18:35;;;;;;;6.30;4.00;;;15.10;99.90;;;;;;5135256;27;20195;-73
2023/10/23 10:21:05;;;;;;;4.65;3.85;;;14.90;99.90;;;;;;5135296;27;20199;-72
2023/10/23 10:23:35;;;;;;;4.45;4.03;;;14.90;99.90;;;;;;5134917;27;20222;-72
2023/10/23 10:26:03;;;;;;;4.20;3.80;;;15.10;99.90;;;;;;5135335;27;20228;-73
2023/10/23 10:28:32;;;;;;;6.63;4.18;;;15.30;99.90;;;;;;5134988;27;20222;-72
2023/10/23 10:30:58;;;;;;;5.22;3.75;;;15.20;99.90;;;;;;5135025;27;20222;-72
2023/10/23 10:33:26;;;;;;;6.90;3.90;;;15.50;99.90;;;;;;5134836;27;20223;-73
2023/10/23 10:35:59;;;;;;;4.68;3.80;;;15.80;99.90;;;;;;5134889;27;20818;-72
2023/10/23 10:38:27;;;;;;;4.93;3.58;;;15.80;99.90;;;;;;5134775;27;20195;-73
2023/10/23 10:40:56;;;;;;;4.18;3.78;;;16.00;99.90;;;;;;5134945;27;20210;-73
2023/10/23 10:43:24;;;;;;;8.43;5.45;;;16.10;99.90;;;;;;5134848;27;20313;-73
2023/10/23 10:45:55;;;;;;;5.03;3.97;;;16.40;99.90;;;;;;5134402;27;20198;-72
2023/10/23 10:48:23;;;;;;;4.72;3.70;;;16.50;99.90;;;;;;5134478;27;20596;-73
2023/10/23 10:50:50;;;;;;;4.18;3.70;;;16.50;99.90;;;;;;5134367;27;20240;-73
2023/10/23 10:53:16;;;;;;;4.28;3.60;;;16.80;99.90;;;;;;5134700;27;20244;-72
2023/10/23 10:55:45;;;;;;;6.43;3.80;;;16.70;99.90;;;;;;5134690;27;20232;-73
2023/10/23 10:58:12;;;;;;;4.15;3.42;;;16.70;99.90;;;;;;5134617;27;20289;-74
2023/10/23 11:00:39;;;;;;;4.53;3.72;;;16.60;99.90;;;;;;5134392;27;20198;-74
2023/10/23 11:03:08;;;;;;;5.22;3.53;;;16.50;99.90;;;;;;5133599;27;20263;-74
2023/10/23 11:05:36;;;;;;;4.75;3.20;;;16.30;99.90;;;;;;5134773;27;20202;-74
2023/10/23 11:08:03;;;;;;;7.03;3.65;;;16.30;99.90;;;;;;5134513;27;20569;-73
2023/10/23 11:10:30;;;;;;;6.13;3.65;;;16.00;99.90;;;;;;5134388;27;20240;-74
2023/10/23 11:12:57;;;;;;;5.13;3.33;;;15.90;99.90;;;;;;5134299;27;20282;-74
2023/10/23 11:15:24;;;;;;;4.97;3.38;;;15.70;99.90;;;;;;5134149;27;20224;-73
2023/10/23 11:17:51;;;;;;;5.15;3.70;;;15.60;99.90;;;;;;5123106;27;20192;-73
2023/10/23 11:20:19;;;;;;;9.73;3.90;;;15.60;99.90;;;;;;5125625;27;20650;-73
2023/10/23 11:22:47;;;;;;;5.35;3.38;;;15.60;99.90;;;;;;5133640;27;20187;-72
2023/10/23 11:25:15;;;;;;;8.43;3.60;;;15.60;99.90;;;;;;5133901;27;20301;-74
2023/10/23 11:27:42;;;;;;;4.57;3.33;;;15.70;99.90;;;;;;5133603;27;20187;-74
2023/10/23 11:30:09;;;;;;;4.93;3.60;;;15.70;99.90;;;;;;5133557;27;20584;-75
2023/10/23 11:32:39;;;;;;;5.70;4.00;;;15.60;99.90;;;;;;5133354;27;20550;-73
2023/10/23 11:35:06;;;;;;;5.88;3.53;;;15.60;99.90;;;;;;5133753;27;20226;-75
2023/10/23 11:37:38;;;;;;;5.82;3.60;;;15.60;99.90;;;;;;5133941;27;20195;-75
2023/10/23 11:40:06;;;;;;;4.60;3.40;;;15.50;99.90;;;;;;5133871;27;20244;-75
2023/10/23 11:42:48;;;;;;;6.20;3.40;;;15.60;99.90;;;;;;5133818;27;20191;-76
2023/10/23 11:45:17;;;;;;;6.85;3.45;;;15.40;99.90;;;;;;5133863;27;20207;-76
2023/10/23 11:47:44;;;;;;;5.07;3.55;;;15.40;99.90;;;;;;5133690;27;20195;-75
2023/10/23 11:50:12;;;;;;;5.88;3.45;;;15.50;99.90;;;;;;5133410;28;20586;-74
2023/10/23 11:52:45;;;;;;;5.25;3.95;;;15.40;99.90;;;;;;5133541;28;20566;-74
2023/10/23 11:55:14;;;;;;;6.53;3.80;;;15.40;99.90;;;;;;5133353;28;20217;-74
2023/10/23 11:57:42;;;;;;;6.05;3.25;;;15.30;99.90;;;;;;5132846;28;20198;-73
2023/10/23 12:00:13;;;;;;;4.60;3.80;;;15.20;99.90;;;;;;5132609;28;20208;-73
2023/10/23 12:02:40;;;;;;;5.35;3.42;;;15.30;99.90;;;;;;5130901;28;20203;-74
2023/10/23 12:05:11;;;;;;;5.23;3.27;;;15.30;99.90;;;;;;5132563;28;20636;-76
2023/10/23 12:07:39;;;;;;;4.50;3.17;;;15.30;99.90;;;;;;5133431;28;20654;-77
2023/10/23 12:10:09;;;;;;;6.47;2.95;;;15.30;99.90;;;;;;5133200;28;20298;-74
2023/10/23 12:12:36;;;;;;;4.40;3.30;;;15.20;99.90;;;;;;5133809;28;20271;-73
2023/10/23 12:15:04;;;;;;;5.32;3.22;;;15.20;99.90;;;;;;5135344;27;20558;-75
2023/10/23 12:17:31;;;;;;;4.05;3.30;;;15.20;99.90;;;;;;5135088;27;20584;-74
2023/10/23 12:19:57;;;;;;;4.63;3.28;;;15.30;99.90;;;;;;5137199;27;20195;-75
2023/10/23 12:22:24;;;;;;;3.30;3.00;;;15.30;99.90;;;;;;5136929;27;20204;-75
2023/10/23 12:24:51;;;;;;;3.78;2.88;;;15.20;99.90;;;;;;5119617;27;20269;-75
2023/10/23 12:27:18;;;;;;;5.28;3.35;;;15.20;99.90;;;;;;5117199;28;20229;-75
2023/10/23 12:29:45;;;;;;;4.13;3.35;;;15.10;99.90;;;;;;5116947;28;20195;-74
2023/10/23 12:32:14;;;;;;;4.97;3.77;;;15.00;99.90;;;;;;5119084;28;20290;-74
2023/10/23 12:34:40;;;;;;;4.87;3.60;;;15.00;99.90;;;;;;5120899;28;20589;-73
2023/10/23 12:37:07;;;;;;;4.40;3.30;;;14.90;99.90;;;;;;5121118;28;20192;-74
2023/10/23 12:39:34;;;;;;;4.00;3.30;;;14.80;99.90;;;;;;5119955;28;20203;-76
2023/10/23 12:42:00;;;;;;;6.33;3.10;;;14.80;99.90;;;;;;5116688;28;20192;-73
2023/10/23 12:44:28;;;;;;;4.25;3.17;;;14.70;99.90;;;;;;5116454;28;20238;-74
2023/10/23 12:46:55;;;;;;;6.87;3.67;;;14.70;99.90;;;;;;5116399;28;20196;-71